الصفحة الرئيسية
METAR-TAF:

METAR-TAF

مطار :

Yap, مايكرونيزيا

دائرة عرض: 09-29N, خط طول: 138-05E, ارتفاع: 28 متر

مراقبة الطقس الحالي

تاريخ ووقت الإصدار 15 دقيقة قبل الساعة 01:50UTC
ريح 7 عقدة من الشرق/الجنوب الشرقي
درجة الحرارة 31°درجة مئوية
الرطوبة 79%
ضغط 1013 hPa
الرؤية: 19.3 كم
غيوم قليلة على ارتفاع 1700 قدم, مزن ركامية عمودية.
غيوم متفرقة على ارتفاع 13000 قدم
غيوم مفككة على ارتفاع 30000 قدم

METAR: PTYA 270150Z 11007KT 12SM FEW017TCU SCT130 BKN300 31/27 A2992 RMK TCU S SLP134 T03080265

زمن: 12:05 (02:05 UTC)

توقعات

تاريخ ووقت الإصدار 2ساعات و 38 دقيقة قبل الساعة 23:27UTC
التوقعات صالحة من27 الساعة 00 UTC إلى 27 الساعة 24 UTC
ريح 8 عقدة من الشرق
الرؤية: 10 كم
غيوم قليلة على ارتفاع 1600 قدم
غيوم متفرقة على ارتفاع 5000 قدم
غيوم متفرقة على ارتفاع 13000 قدم
زخات في الجوار
من 27 الساعة 0300 UTC
ريح 10 عقدة من الجنوب الشرقي
الرؤية: 10 كم
غيوم متفرقة على ارتفاع 1500 قدم
غيوم متفرقة على ارتفاع 5000 قدم
غيوم مفككة على ارتفاع 10000 قدم
زخات في الجوار

TAF: PTYA 262327Z 2700/2724 10008KT P6SM VCSH FEW016 SCT050 SCT130 FM270300 14010KT P6SM VCSH SCT015 SCT050 BKN100

أرصاد الطقس والتوقعات من أكثر من 4000 مطار (تقارير الطقس للمطار METAR والتنبؤ بالطقس بالمطارTAF).

المحطات المتاحة هي النقط الصفراء والحمراء على الخريطة.

حرك المؤشر فوق النقطة لمعرفة اسم المحطة.

ثم انقر لمعرفة أرصاد وتوقعات الطقس.

لتغيير الخارطة: اضغط على الأزرار الخضراء مع رمز الصليب الأسود للتكبير. على الزر الأخضر مع شرطة للتصغير، أو على الأسهم الخضراء للخرائط المجاورة.


METAR-TAF: